Latest  Newer  Older  Last 2 hours animation  Current image  Latest image 
Rain/snow radar  Infrared sat images 
Real-time lightning map

All time is UTC (add 2 hours to UTC in wintertime, 3 hours to UTC in DST for Latvia local time)

2021/08/01 03:20 EVRA 010320Z 19006KT 9999 SCT049CB 16/15 Q1002 NOSIG
2021/08/01 03:20 EVLA 010320Z AUTO 17008KT 140V200 9999 BKN019/// BKN025/// BKN087/// 16/15 Q1001
2021/08/01 03:20 EVVA 010320Z AUTO 16011KT CAVOK 16/15 Q0999
2021/08/01 03:20 EYKA 010320Z 21005KT 170V230 CAVOK 16/14 Q1005
2021/08/01 03:20 EYPA 010320Z 24008KT 200V280 9999 SCT021CB BKN061 18/15 Q1003
2021/08/01 03:20 EYSA 010320Z 19007KT CAVOK 15/14 Q1004 BLU NOSIG
2021/08/01 03:20 EYVI 010320Z 18006KT 9000 NSC 15/14 Q1006 NOSIG
2021/07/31 07:50 EEKA 310750Z 22007KT 150V280 9999 SCT021 20/16 Q0998
2021/08/01 03:20 EEKE 010320Z AUTO 20013KT 9999NDV DZ FEW039 17/14 Q0999

2021/08/01 03:20 EETN 010320Z 16006KT 9999 SCT008 BKN034 15/14 Q0999
2021/08/01 03:20 EETU 010320Z AUTO 16004KT 9999 NCD 15/14 Q1001
   RIGA AIRPORT     EVRA               56 55N  023 58E   10   X     T          6 LV
   LIEPAJA INTL     EVLA        26406  56 31N  021 06E    4   X                8 LV
   VENTPILS         EVVA               57 21N  021 33E    6   X                8 LV
   KAUNAS           EYKA               54 54N  023 55E   77   X     T          6 LT
   PALANGA INTL     EYPA               55 55N  021 03E   10   X                6 LT
   SIAULIAI INTL    EYSA               55 54N  023 24E  135   X     T          6 LT
   VILNIUS INTL     EYVI        26730  54 38N  025 17E  197   X     T          6 LT
   KARDLA           EEKA        26116  58 59N  022 50E    4   X                8 EE
   KURESSAARE       EEKE               58 14N  022 31E    4   X                8 EE
   PARNU            EEPU               58 25N  024 28E   14   X                8 EE
   TALLINN          EETN        26038  59 24N  024 49E   40   X     T          8 EE
   TARTU            EETU               58 19N  026 41E   67   X                8 EE

cloud coverage image from sat24.com and METAR data from weather.noaa.gov